Time;durP1;ratioP1;P1;durP2;ratioP2;P2;SDS_P1;SDS_P2;PMS_P1;PMS_P2;Temp;Humidity;BMP_temperature;BMP_pressure;BME280_temperature;BME280_humidity;BME280_pressure;Samples;Min_cycle;Max_cycle;Signal;HPM_P1;HPM_P2
2023/05/10 00:01:46;;;;;;;56.45;34.15;;;14.90;99.90;;;;;;6155560;23;20009;-73
2023/05/10 00:04:11;;;;;;;53.90;37.13;;;14.90;99.90;;;;;;6181420;23;20047;-73
2023/05/10 00:06:37;;;;;;;58.85;37.10;;;15.00;99.90;;;;;;6181975;23;20130;-73
2023/05/10 00:09:03;;;;;;;61.50;39.55;;;15.00;99.90;;;;;;6181862;23;20016;-73
2023/05/10 00:11:28;;;;;;;54.65;35.95;;;15.00;99.90;;;;;;6181231;23;20391;-73
2023/05/10 00:13:54;;;;;;;63.60;37.85;;;15.00;99.90;;;;;;6181433;23;20009;-73
2023/05/10 00:16:19;;;;;;;56.22;38.97;;;15.00;99.90;;;;;;6181231;23;20001;-73
2023/05/10 00:18:45;;;;;;;65.25;38.67;;;15.00;99.90;;;;;;6181746;23;20005;-73
2023/05/10 00:21:11;;;;;;;63.88;41.25;;;15.00;99.90;;;;;;6181113;23;20013;-73
2023/05/10 00:23:37;;;;;;;65.82;41.85;;;14.90;99.90;;;;;;6181980;23;20008;-73
2023/05/10 00:26:02;;;;;;;63.53;41.10;;;14.90;99.90;;;;;;6155262;23;20008;-73
2023/05/10 00:28:28;;;;;;;67.22;41.28;;;14.90;99.90;;;;;;6181001;23;20009;-73
2023/05/10 00:30:54;;;;;;;63.63;41.78;;;14.90;99.90;;;;;;6182107;23;20012;-73
2023/05/10 00:33:20;;;;;;;77.18;39.67;;;14.90;99.90;;;;;;6181268;23;20044;-73
2023/05/10 00:35:45;;;;;;;63.10;39.63;;;14.90;99.90;;;;;;6181831;23;20005;-73
2023/05/10 00:38:11;;;;;;;68.80;40.80;;;14.90;99.90;;;;;;6181307;23;20076;-73
2023/05/10 00:40:37;;;;;;;66.35;40.88;;;14.90;99.90;;;;;;6181748;23;20008;-73
2023/05/10 00:43:03;;;;;;;60.88;38.50;;;14.90;99.90;;;;;;6180854;23;20013;-73
2023/05/10 00:45:32;;;;;;;75.55;42.05;;;14.90;99.90;;;;;;6181479;23;20080;-73
2023/05/10 00:48:00;;;;;;;76.95;41.95;;;14.90;99.90;;;;;;6181619;23;20001;-73
2023/05/10 00:50:26;;;;;;;74.80;42.45;;;14.90;99.90;;;;;;6181045;23;20047;-73
2023/05/10 00:52:52;;;;;;;71.25;42.65;;;14.90;99.90;;;;;;6181096;23;20001;-73
2023/05/10 00:55:18;;;;;;;79.82;43.95;;;14.90;99.90;;;;;;6153804;23;20001;-73
2023/05/10 00:57:43;;;;;;;82.80;42.53;;;14.90;99.90;;;;;;6179731;23;20001;-73
2023/05/10 01:00:11;;;;;;;76.25;43.63;;;14.90;99.90;;;;;;6179474;23;19997;-74
2023/05/10 01:02:36;;;;;;;78.35;45.78;;;14.90;99.90;;;;;;6154890;23;20060;-73
2023/05/10 01:05:03;;;;;;;86.63;46.13;;;14.90;99.90;;;;;;6181544;23;20347;-73
2023/05/10 01:07:29;;;;;;;78.35;45.95;;;14.90;99.90;;;;;;6180951;23;19997;-73
2023/05/10 01:09:55;;;;;;;79.18;46.90;;;14.90;99.90;;;;;;6181560;23;20050;-73
2023/05/10 01:12:21;;;;;;;75.82;47.90;;;15.00;99.90;;;;;;6180263;23;20001;-73
2023/05/10 01:14:47;;;;;;;77.63;43.72;;;15.00;99.90;;;;;;6155129;23;20016;-72
2023/05/10 01:17:13;;;;;;;71.80;43.17;;;14.90;99.90;;;;;;6180880;23;20051;-73
2023/05/10 01:19:39;;;;;;;70.50;42.38;;;15.00;99.90;;;;;;6154953;23;20005;-74
2023/05/10 01:22:33;;;;;;;68.47;41.20;;;15.00;99.90;;;;;;6181069;23;20015;-73
2023/05/10 01:25:13;;;;;;;62.58;39.83;;;15.00;99.90;;;;;;6181672;23;20028;-73
2023/05/10 01:27:39;;;;;;;73.57;40.95;;;15.00;99.90;;;;;;6180819;23;20029;-73
2023/05/10 01:30:50;;;;;;;67.97;42.08;;;14.90;99.90;;;;;;6181088;23;19997;-73
2023/05/10 01:33:38;;;;;;;69.63;41.88;;;14.90;99.90;;;;;;6180669;23;20032;-73
2023/05/10 01:36:30;;;;;;;72.70;42.88;;;15.00;99.90;;;;;;6181125;23;20083;-74
2023/05/10 01:39:01;;;;;;;76.15;44.00;;;14.90;99.90;;;;;;6154940;23;20005;-74
2023/05/10 01:41:42;;;;;;;67.57;41.65;;;14.90;99.90;;;;;;6180078;23;20087;-74
2023/05/10 01:44:07;;;;;;;64.07;38.60;;;15.00;99.90;;;;;;6180433;23;20037;-73
2023/05/10 01:46:37;;;;;;;59.13;36.08;;;15.00;99.90;;;;;;6179730;23;20108;-74
2023/05/10 01:49:07;;;;;;;56.67;34.22;;;14.90;99.90;;;;;;6179042;23;20010;-73
2023/05/10 01:51:40;;;;;;;56.97;34.38;;;15.00;99.90;;;;;;6181020;23;20051;-73
2023/05/10 01:54:09;;;;;;;62.10;34.15;;;15.00;99.90;;;;;;6154420;23;20095;-74
2023/05/10 01:56:37;;;;;;;56.85;31.23;;;14.90;99.90;;;;;;6180188;23;20005;-74
2023/05/10 01:59:08;;;;;;;59.58;34.08;;;14.90;99.90;;;;;;6154746;23;20004;-74
2023/05/10 02:01:36;;;;;;;61.88;33.75;;;14.90;99.90;;;;;;6180637;23;20004;-74
2023/05/10 02:04:02;;;;;;;64.88;35.45;;;14.90;99.90;;;;;;6181103;23;20001;-74
2023/05/10 02:06:28;;;;;;;66.03;33.63;;;14.90;99.90;;;;;;6180854;23;20001;-73
2023/05/10 02:08:55;;;;;;;72.53;36.85;;;14.90;99.90;;;;;;6180542;23;20269;-73
2023/05/10 02:11:21;;;;;;;66.78;36.97;;;14.80;99.90;;;;;;6179767;23;20004;-74
2023/05/10 02:13:50;;;;;;;67.00;35.03;;;14.80;99.90;;;;;;6180757;23;20408;-74
2023/05/10 02:16:16;;;;;;;68.85;36.97;;;14.80;99.90;;;;;;6180155;23;20083;-74
2023/05/10 02:18:43;;;;;;;67.85;36.13;;;14.80;99.90;;;;;;6180962;23;20081;-73
2023/05/10 02:21:10;;;;;;;71.28;38.30;;;14.80;99.90;;;;;;6180215;23;20023;-72
2023/05/10 02:23:37;;;;;;;71.80;39.28;;;14.80;99.90;;;;;;6181203;23;20005;-74
2023/05/10 02:26:05;;;;;;;82.18;40.53;;;14.80;99.90;;;;;;6180844;23;20256;-73
2023/05/10 02:28:32;;;;;;;73.05;39.00;;;14.80;99.90;;;;;;6180183;23;20001;-74
2023/05/10 02:30:58;;;;;;;69.75;38.90;;;14.80;99.90;;;;;;6180868;23;20319;-74
2023/05/10 02:33:25;;;;;;;80.55;40.67;;;14.80;99.90;;;;;;6180345;23;20032;-74
2023/05/10 02:35:52;;;;;;;73.28;40.40;;;14.80;99.90;;;;;;6180828;23;20001;-74
2023/05/10 02:38:20;;;;;;;74.55;40.45;;;14.80;99.90;;;;;;6180282;23;20001;-74
2023/05/10 02:40:47;;;;;;;79.00;41.67;;;14.80;99.90;;;;;;6179776;23;20128;-74
2023/05/10 02:43:15;;;;;;;75.13;42.15;;;14.80;99.90;;;;;;6179881;23;20019;-74
2023/05/10 02:45:42;;;;;;;80.35;44.22;;;14.80;99.90;;;;;;6180654;23;20104;-73
2023/05/10 02:48:08;;;;;;;75.80;41.75;;;14.80;99.90;;;;;;6180390;23;20001;-73
2023/05/10 02:50:35;;;;;;;87.40;46.70;;;14.80;99.90;;;;;;6179921;23;20005;-73
2023/05/10 02:53:03;;;;;;;78.28;45.28;;;14.80;99.90;;;;;;6180413;23;20028;-73
2023/05/10 02:55:32;;;;;;;83.03;45.28;;;14.80;99.90;;;;;;6179315;23;20001;-73
2023/05/10 02:58:00;;;;;;;85.45;48.05;;;14.70;99.90;;;;;;6153908;23;20063;-73
2023/05/10 03:00:25;;;;;;;83.95;47.70;;;14.70;99.90;;;;;;6179637;23;20007;-73
2023/05/10 03:02:51;;;;;;;73.70;46.38;;;14.70;99.90;;;;;;6180499;23;20076;-73
2023/05/10 03:05:17;;;;;;;83.88;49.90;;;14.70;99.90;;;;;;6153081;23;20414;-73
2023/05/10 03:07:43;;;;;;;85.47;49.92;;;14.60;99.90;;;;;;6180122;23;20031;-73
2023/05/10 03:10:09;;;;;;;85.65;45.83;;;14.70;99.90;;;;;;6179730;23;20004;-73
2023/05/10 03:13:00;;;;;;;81.20;47.50;;;14.60;99.90;;;;;;6180032;23;20008;-73
2023/05/10 03:15:37;;;;;;;69.97;42.42;;;14.60;99.90;;;;;;6179692;23;20005;-73
2023/05/10 03:18:10;;;;;;;76.70;46.22;;;14.60;99.90;;;;;;6180177;23;20012;-73
2023/05/10 03:20:58;;;;;;;70.05;43.30;;;14.60;99.90;;;;;;6181308;23;20052;-73
2023/05/10 03:23:45;;;;;;;79.80;45.88;;;14.60;99.90;;;;;;6180392;23;20020;-73
2023/05/10 03:26:17;;;;;;;75.57;43.72;;;14.50;99.90;;;;;;6181947;23;20013;-73
2023/05/10 03:28:43;;;;;;;82.10;46.45;;;14.50;99.90;;;;;;6182781;23;20005;-73
2023/05/10 03:31:09;;;;;;;73.38;45.30;;;14.50;99.90;;;;;;6181815;23;20374;-73
2023/05/10 03:33:35;;;;;;;70.32;45.75;;;14.50;99.90;;;;;;6182330;23;20005;-73
2023/05/10 03:36:00;;;;;;;77.13;48.00;;;14.50;99.90;;;;;;6182422;23;20016;-73
2023/05/10 03:38:26;;;;;;;90.63;50.25;;;14.50;99.90;;;;;;6181223;23;20883;-73
2023/05/10 03:40:51;;;;;;;87.68;52.97;;;14.50;99.90;;;;;;6182486;23;20001;-73
2023/05/10 03:43:17;;;;;;;88.47;50.30;;;14.50;99.90;;;;;;6181140;23;20506;-73
2023/05/10 03:45:42;;;;;;;77.38;47.63;;;14.50;99.90;;;;;;6182268;23;20352;-73
2023/05/10 03:48:08;;;;;;;68.75;44.22;;;14.50;99.90;;;;;;6182175;23;20001;-73
2023/05/10 03:50:33;;;;;;;83.50;49.22;;;14.50;99.90;;;;;;6181865;23;20001;-73
2023/05/10 03:52:59;;;;;;;85.43;49.03;;;14.50;99.90;;;;;;6181894;23;20108;-73
2023/05/10 03:55:24;;;;;;;75.47;46.58;;;14.50;99.90;;;;;;6181563;23;20121;-73
2023/05/10 03:57:50;;;;;;;77.68;46.67;;;14.40;99.90;;;;;;6182415;23;20427;-72
2023/05/10 04:00:16;;;;;;;86.05;48.38;;;14.40;99.90;;;;;;6181771;23;20001;-73
2023/05/10 04:02:42;;;;;;;77.18;43.88;;;14.40;99.90;;;;;;6155576;23;20315;-73
2023/05/10 04:05:08;;;;;;;73.80;43.90;;;14.40;99.90;;;;;;6181876;23;20005;-73
2023/05/10 04:07:33;;;;;;;75.20;46.05;;;14.40;99.90;;;;;;6181518;23;20008;-73
2023/05/10 04:09:59;;;;;;;72.22;42.10;;;14.30;99.90;;;;;;6182013;23;20016;-72
2023/05/10 04:12:24;;;;;;;75.20;43.15;;;14.40;99.90;;;;;;6181596;23;20426;-73
2023/05/10 04:14:50;;;;;;;68.63;42.10;;;14.30;99.90;;;;;;6182105;23;20500;-73
2023/05/10 04:17:16;;;;;;;64.72;37.22;;;14.30;99.90;;;;;;6181365;23;20041;-73
2023/05/10 04:19:41;;;;;;;62.85;37.65;;;14.20;99.90;;;;;;6182216;23;20046;-73
2023/05/10 04:22:07;;;;;;;58.33;38.40;;;14.20;99.90;;;;;;6181018;23;20357;-73
2023/05/10 04:24:32;;;;;;;60.00;34.95;;;14.20;99.90;;;;;;6181713;23;20009;-73
2023/05/10 04:26:58;;;;;;;60.63;35.83;;;14.30;99.90;;;;;;6181922;23;20048;-73
2023/05/10 04:29:23;;;;;;;61.25;38.38;;;14.20;99.90;;;;;;6181227;23;20008;-73
2023/05/10 04:31:50;;;;;;;64.32;39.00;;;14.20;99.90;;;;;;6181562;23;20004;-72
2023/05/10 04:34:16;;;;;;;68.88;41.60;;;14.20;99.90;;;;;;6154352;23;20449;-73
2023/05/10 04:36:41;;;;;;;75.28;40.78;;;14.20;99.90;;;;;;6181345;23;20036;-73
2023/05/10 04:39:07;;;;;;;69.15;40.97;;;14.20;99.90;;;;;;6155051;23;20028;-73
2023/05/10 04:41:32;;;;;;;72.70;42.10;;;14.20;99.90;;;;;;6180984;23;20384;-73
2023/05/10 04:43:58;;;;;;;74.00;42.55;;;14.20;99.90;;;;;;6181802;23;20482;-73
2023/05/10 04:46:23;;;;;;;68.22;40.78;;;14.20;99.90;;;;;;6181056;23;20602;-72
2023/05/10 04:48:49;;;;;;;71.30;41.42;;;14.20;99.90;;;;;;6181709;23;20024;-73
2023/05/10 04:51:14;;;;;;;68.00;41.70;;;14.20;99.90;;;;;;6180531;23;20001;-73
2023/05/10 04:53:40;;;;;;;80.60;44.10;;;14.20;99.90;;;;;;6155163;23;20009;-72
2023/05/10 04:56:06;;;;;;;70.03;41.58;;;14.20;99.90;;;;;;6155162;23;20335;-73
2023/05/10 04:58:32;;;;;;;63.58;38.90;;;14.30;99.90;;;;;;6154752;23;20020;-73
2023/05/10 05:01:04;;;;;;;68.63;39.75;;;14.30;99.90;;;;;;6181612;23;20001;-74
2023/05/10 05:03:29;;;;;;;62.88;39.45;;;14.30;99.90;;;;;;6180997;23;20005;-73
2023/05/10 05:05:55;;;;;;;64.70;38.55;;;14.30;99.90;;;;;;6180849;23;20001;-73
2023/05/10 05:08:20;;;;;;;69.85;41.53;;;14.30;99.90;;;;;;6180874;23;20001;-73
2023/05/10 05:10:47;;;;;;;70.65;40.00;;;14.40;99.90;;;;;;6181582;23;20063;-73
2023/05/10 05:13:13;;;;;;;72.38;39.10;;;14.40;99.90;;;;;;6180840;23;20009;-74
2023/05/10 05:15:38;;;;;;;67.45;39.38;;;14.40;99.90;;;;;;6181565;23;20005;-74
2023/05/10 05:18:04;;;;;;;64.82;38.58;;;14.40;99.90;;;;;;6181254;23;20008;-73
2023/05/10 05:20:33;;;;;;;68.18;39.10;;;14.50;99.90;;;;;;6180841;23;20051;-74
2023/05/10 05:22:58;;;;;;;66.53;40.28;;;14.50;99.90;;;;;;6181453;23;20174;-74
2023/05/10 05:25:24;;;;;;;67.22;38.10;;;14.50;99.90;;;;;;6180715;23;20096;-74
2023/05/10 05:27:49;;;;;;;60.75;35.28;;;14.50;99.90;;;;;;6181370;23;20802;-74
2023/05/10 05:30:15;;;;;;;67.25;39.72;;;14.50;99.90;;;;;;6180844;23;20402;-74
2023/05/10 05:32:41;;;;;;;64.68;38.10;;;14.40;99.90;;;;;;6180904;23;20080;-74
2023/05/10 05:35:07;;;;;;;67.43;38.83;;;14.50;99.90;;;;;;6181006;23;20012;-74
2023/05/10 05:37:32;;;;;;;71.45;39.85;;;14.50;99.90;;;;;;6180777;23;20458;-74
2023/05/10 05:39:58;;;;;;;67.22;40.00;;;14.50;99.90;;;;;;6181132;23;20001;-74
2023/05/10 05:42:23;;;;;;;63.83;37.60;;;14.50;99.90;;;;;;6180023;23;20052;-73
2023/05/10 05:44:50;;;;;;;60.88;35.83;;;14.50;99.90;;;;;;6155406;23;20021;-73
2023/05/10 05:47:15;;;;;;;70.63;39.47;;;14.60;99.90;;;;;;6180569;23;20279;-74
2023/05/10 05:49:41;;;;;;;69.93;38.85;;;14.60;99.90;;;;;;6154979;23;20265;-74
2023/05/10 05:52:06;;;;;;;67.65;39.40;;;14.60;99.90;;;;;;6180922;23;20399;-74
2023/05/10 05:54:32;;;;;;;69.25;37.17;;;14.60;99.90;;;;;;6180944;23;20005;-74
2023/05/10 05:56:58;;;;;;;71.47;39.50;;;14.70;99.90;;;;;;6181144;23;20403;-74
2023/05/10 05:59:24;;;;;;;73.60;38.33;;;14.70;99.90;;;;;;6180694;23;20009;-74
2023/05/10 06:01:50;;;;;;;71.25;38.97;;;14.70;99.90;;;;;;6180482;23;20055;-74
2023/05/10 06:04:16;;;;;;;67.10;39.90;;;14.70;99.90;;;;;;6180658;23;20005;-73
2023/05/10 06:06:42;;;;;;;63.78;39.30;;;14.70;99.90;;;;;;6181182;23;20089;-75
2023/05/10 06:09:08;;;;;;;70.40;41.25;;;14.70;99.90;;;;;;6180843;23;20407;-72
2023/05/10 06:11:34;;;;;;;73.50;39.33;;;14.70;99.90;;;;;;6180630;23;20418;-71
2023/05/10 06:14:00;;;;;;;61.22;38.42;;;14.70;99.90;;;;;;6181037;23;20000;-72
2023/05/10 06:16:26;;;;;;;74.50;41.78;;;14.80;99.90;;;;;;6153163;23;20399;-72
2023/05/10 06:18:51;;;;;;;64.78;39.58;;;14.90;99.90;;;;;;6180856;23;20013;-72
2023/05/10 06:21:17;;;;;;;69.47;39.83;;;14.80;99.90;;;;;;6180188;23;20012;-72
2023/05/10 06:23:43;;;;;;;74.00;42.38;;;14.80;99.90;;;;;;6180953;23;20003;-72
2023/05/10 06:26:09;;;;;;;75.53;42.40;;;14.80;99.90;;;;;;6179968;23;20319;-71
2023/05/10 06:28:37;;;;;;;64.88;40.17;;;14.70;99.90;;;;;;6180495;23;20001;-72
2023/05/10 06:31:03;;;;;;;71.38;42.08;;;14.80;99.90;;;;;;6180056;23;20028;-72
2023/05/10 06:33:29;;;;;;;71.18;42.42;;;14.80;99.90;;;;;;6180155;23;20005;-72
2023/05/10 06:35:55;;;;;;;67.10;41.47;;;14.80;99.90;;;;;;6154774;23;20422;-72
2023/05/10 06:38:21;;;;;;;67.80;42.92;;;14.80;99.90;;;;;;6180048;23;20052;-72
2023/05/10 06:40:46;;;;;;;66.90;39.95;;;14.80;99.90;;;;;;6180440;23;20327;-72
2023/05/10 06:43:12;;;;;;;74.43;45.15;;;14.80;99.90;;;;;;6179605;23;20437;-72
2023/05/10 06:45:37;;;;;;;73.38;43.17;;;14.80;99.90;;;;;;6179955;23;20020;-72
2023/05/10 06:48:03;;;;;;;70.45;40.10;;;14.70;99.90;;;;;;6180425;23;20005;-72
2023/05/10 06:50:29;;;;;;;75.40;41.42;;;14.70;99.90;;;;;;6179795;23;20079;-72
2023/05/10 06:52:55;;;;;;;68.55;42.20;;;14.80;99.90;;;;;;6180642;23;20001;-73
2023/05/10 06:55:21;;;;;;;71.53;42.75;;;14.70;99.90;;;;;;6179569;23;20021;-72
2023/05/10 06:57:47;;;;;;;73.55;42.53;;;14.70;99.90;;;;;;6180901;23;20060;-73
2023/05/10 07:00:13;;;;;;;71.32;45.88;;;14.80;99.90;;;;;;6152375;23;20019;-73
2023/05/10 07:02:39;;;;;;;75.68;43.72;;;14.80;99.90;;;;;;6176776;23;20019;-73
2023/05/10 07:05:05;;;;;;;63.13;43.05;;;14.90;99.90;;;;;;6179449;23;20040;-72
2023/05/10 07:07:31;;;;;;;63.65;41.17;;;14.90;99.90;;;;;;6179800;23;20012;-72
2023/05/10 07:09:57;;;;;;;71.95;44.47;;;14.90;99.90;;;;;;6178686;23;20005;-72
2023/05/10 07:12:23;;;;;;;64.80;43.70;;;14.90;99.90;;;;;;6178756;23;20033;-72
2023/05/10 07:14:48;;;;;;;83.50;49.67;;;14.90;99.90;;;;;;6179370;23;20133;-72
2023/05/10 07:17:14;;;;;;;86.80;52.33;;;14.90;99.90;;;;;;6176424;23;20009;-72
2023/05/10 07:19:40;;;;;;;81.32;47.47;;;14.90;99.90;;;;;;6178545;23;20076;-72
2023/05/10 07:22:05;;;;;;;96.30;52.65;;;14.80;99.90;;;;;;6178294;23;20088;-72
2023/05/10 07:24:32;;;;;;;89.63;50.78;;;14.80;99.90;;;;;;6178468;23;20024;-72
2023/05/10 07:26:57;;;;;;;95.25;52.50;;;14.80;99.90;;;;;;6179656;23;20001;-73
2023/05/10 07:29:23;;;;;;;95.35;52.72;;;14.90;99.90;;;;;;6178032;23;20435;-73
2023/05/10 07:31:48;;;;;;;86.68;50.50;;;14.80;99.90;;;;;;6177023;23;19997;-73
2023/05/10 07:34:14;;;;;;;80.15;46.03;;;14.90;99.90;;;;;;6178396;23;19993;-73
2023/05/10 07:36:39;;;;;;;84.60;50.40;;;14.90;99.90;;;;;;6179552;23;19998;-73
2023/05/10 07:39:05;;;;;;;83.38;49.00;;;15.00;99.90;;;;;;6179452;23;20005;-73
2023/05/10 07:41:30;;;;;;;82.88;48.58;;;15.10;99.90;;;;;;6177708;23;20453;-73
2023/05/10 07:43:56;;;;;;;79.68;46.85;;;15.20;99.90;;;;;;6179351;23;20009;-73
2023/05/10 07:46:21;;;;;;;71.03;42.10;;;15.30;99.90;;;;;;6179302;23;20490;-73
2023/05/10 07:48:47;;;;;;;66.65;40.58;;;15.40;99.90;;;;;;6179881;23;20008;-73
2023/05/10 07:51:13;;;;;;;73.53;44.42;;;15.50;99.90;;;;;;6152941;23;20012;-73
2023/05/10 07:53:39;;;;;;;67.32;42.83;;;15.50;99.90;;;;;;6178413;23;20359;-74
2023/05/10 07:56:21;;;;;;;69.00;40.05;;;15.60;99.90;;;;;;6179116;23;20024;-73
2023/05/10 07:58:46;;;;;;;65.03;40.70;;;15.60;99.90;;;;;;6179005;23;20002;-73
2023/05/10 08:01:12;;;;;;;69.90;39.22;;;15.60;99.90;;;;;;6179316;23;20147;-73
2023/05/10 08:03:37;;;;;;;60.05;38.80;;;15.60;99.90;;;;;;6178500;23;20415;-72
2023/05/10 08:06:03;;;;;;;65.90;42.05;;;15.60;99.90;;;;;;6180067;23;20012;-72
2023/05/10 08:08:29;;;;;;;70.20;40.08;;;15.70;99.90;;;;;;6180901;23;20009;-72
2023/05/10 08:10:55;;;;;;;68.88;42.60;;;15.70;99.90;;;;;;6153937;23;20024;-74
2023/05/10 08:13:21;;;;;;;68.82;42.88;;;15.80;99.90;;;;;;6150790;23;20082;-71
2023/05/10 08:15:47;;;;;;;49.90;36.58;;;15.80;99.90;;;;;;6178305;23;20473;-71
2023/05/10 08:18:12;;;;;;;52.75;33.88;;;15.90;99.90;;;;;;6179006;23;20005;-71
2023/05/10 08:20:38;;;;;;;53.20;35.92;;;16.00;99.90;;;;;;6152264;23;20064;-71
2023/05/10 08:23:03;;;;;;;52.10;38.15;;;16.10;99.90;;;;;;6176776;23;20434;-71
2023/05/10 08:25:29;;;;;;;52.40;36.38;;;16.10;99.90;;;;;;6176898;23;20442;-71
2023/05/10 08:27:54;;;;;;;47.00;35.15;;;16.10;99.90;;;;;;6180106;23;20442;-71
2023/05/10 08:30:20;;;;;;;46.75;34.20;;;16.20;99.90;;;;;;6179769;23;20075;-71
2023/05/10 08:32:46;;;;;;;46.45;31.00;;;16.20;99.90;;;;;;6154634;23;20012;-72
2023/05/10 08:35:11;;;;;;;46.47;31.52;;;16.20;99.90;;;;;;6179697;23;20008;-72
2023/05/10 08:37:37;;;;;;;44.53;29.58;;;16.00;99.90;;;;;;6179287;23;20005;-73
2023/05/10 08:40:03;;;;;;;40.30;28.23;;;15.90;99.90;;;;;;6181088;23;20015;-72
2023/05/10 08:42:34;;;;;;;36.17;27.23;;;15.90;99.90;;;;;;6179045;23;20082;-73
2023/05/10 08:45:01;;;;;;;37.10;25.38;;;16.00;99.90;;;;;;6154874;23;20005;-73
2023/05/10 08:47:27;;;;;;;34.40;23.60;;;16.00;99.90;;;;;;6178637;23;20004;-72
2023/05/10 08:49:54;;;;;;;32.38;23.08;;;15.90;99.90;;;;;;6182992;23;20001;-72
2023/05/10 08:52:21;;;;;;;26.02;19.90;;;15.80;99.90;;;;;;6181881;23;20067;-72
2023/05/10 08:54:47;;;;;;;24.48;19.55;;;15.80;99.90;;;;;;6182938;23;20175;-72
2023/05/10 08:57:13;;;;;;;22.60;16.48;;;15.90;99.90;;;;;;6179657;23;20083;-72
2023/05/10 08:59:39;;;;;;;20.48;15.05;;;16.00;99.90;;;;;;6154717;23;20040;-71
2023/05/10 09:02:06;;;;;;;19.83;14.48;;;16.10;99.90;;;;;;6181156;23;20493;-72
2023/05/10 09:04:31;;;;;;;18.23;14.98;;;16.10;99.90;;;;;;6153710;23;20012;-72
2023/05/10 09:06:57;;;;;;;21.67;15.68;;;16.20;99.90;;;;;;6155082;23;20001;-72
2023/05/10 09:09:25;;;;;;;19.13;13.40;;;16.30;99.90;;;;;;6177454;23;20037;-72
2023/05/10 09:11:51;;;;;;;15.90;12.32;;;16.30;99.90;;;;;;6181282;23;20009;-72
2023/05/10 09:14:18;;;;;;;14.35;10.75;;;16.30;99.90;;;;;;6181250;23;19997;-72
2023/05/10 09:16:43;;;;;;;14.02;11.32;;;16.40;99.90;;;;;;6181051;23;20067;-72
2023/05/10 09:19:09;;;;;;;14.63;11.30;;;16.40;99.90;;;;;;6178837;23;20013;-72
2023/05/10 09:21:38;;;;;;;11.95;9.88;;;16.40;99.90;;;;;;6180988;23;20005;-72
2023/05/10 09:24:05;;;;;;;12.10;10.18;;;16.50;99.90;;;;;;6181240;23;20009;-72
2023/05/10 09:26:31;;;;;;;12.18;9.93;;;16.60;99.90;;;;;;6153276;23;20005;-72
2023/05/10 09:28:58;;;;;;;11.50;10.10;;;16.70;99.90;;;;;;6154239;23;19999;-71
2023/05/10 09:31:27;;;;;;;12.40;9.00;;;16.90;99.90;;;;;;6178700;23;20083;-72
2023/05/10 09:33:53;;;;;;;10.73;9.48;;;17.00;99.90;;;;;;6154067;23;20471;-72
2023/05/10 09:36:19;;;;;;;11.55;10.32;;;17.10;99.90;;;;;;6179031;23;20031;-73
2023/05/10 09:38:54;;;;;;;12.32;9.20;;;17.20;99.90;;;;;;6180511;23;20068;-72
2023/05/10 09:41:22;;;;;;;10.00;8.13;;;17.20;99.90;;;;;;6150528;23;20007;-72
2023/05/10 09:43:48;;;;;;;11.18;8.20;;;17.30;99.90;;;;;;6179074;23;20690;-72
2023/05/10 09:46:15;;;;;;;11.93;9.50;;;17.20;99.90;;;;;;6179195;23;20080;-73
2023/05/10 09:48:48;;;;;;;12.13;9.20;;;17.20;99.90;;;;;;6179609;23;20078;-73
2023/05/10 09:51:24;;;;;;;13.25;9.63;;;17.10;99.90;;;;;;6174688;23;20311;-73
2023/05/10 09:54:14;;;;;;;14.02;9.70;;;17.00;99.90;;;;;;6179119;23;20001;-73
2023/05/10 09:56:40;;;;;;;11.48;8.60;;;16.90;99.90;;;;;;6178806;23;20037;-73
2023/05/10 09:59:10;;;;;;;11.40;8.18;;;16.80;99.90;;;;;;6180497;23;20020;-72
2023/05/10 10:01:36;;;;;;;13.60;7.78;;;16.80;99.90;;;;;;6179535;23;20465;-72
2023/05/10 10:04:07;;;;;;;10.38;8.07;;;16.80;99.90;;;;;;6177033;23;19997;-72
2023/05/10 10:06:42;;;;;;;13.02;9.18;;;16.80;99.90;;;;;;6178910;23;20007;-73
2023/05/10 10:09:08;;;;;;;11.68;9.00;;;16.80;99.90;;;;;;6178401;23;20314;-73
2023/05/10 10:11:37;;;;;;;11.40;8.82;;;16.90;99.90;;;;;;6180261;23;20001;-73
2023/05/10 10:14:04;;;;;;;9.60;8.27;;;16.90;99.90;;;;;;6178852;23;20005;-72
2023/05/10 10:16:31;;;;;;;12.95;9.65;;;17.00;99.90;;;;;;6179904;23;20008;-73
2023/05/10 10:18:57;;;;;;;12.82;8.93;;;17.10;99.90;;;;;;6180263;23;20001;-68
2023/05/10 10:21:23;;;;;;;12.98;9.20;;;17.10;99.90;;;;;;6152993;23;20016;-73
2023/05/10 10:23:48;;;;;;;12.65;10.05;;;17.20;99.90;;;;;;6179099;23;20411;-72
2023/05/10 10:26:17;;;;;;;12.30;10.57;;;17.20;99.90;;;;;;6178482;23;20011;-73
2023/05/10 10:28:47;;;;;;;12.20;10.38;;;17.20;99.90;;;;;;6180041;23;20003;-73
2023/05/10 10:31:45;;;;;;;13.23;10.48;;;17.20;99.90;;;;;;6178684;23;20443;-72
2023/05/10 10:34:27;;;;;;;12.93;9.32;;;17.20;99.90;;;;;;6169446;23;19997;-72
2023/05/10 10:36:55;;;;;;;12.43;9.93;;;17.00;99.90;;;;;;6180206;23;20001;-72
2023/05/10 10:39:21;;;;;;;13.23;9.20;;;17.00;99.90;;;;;;6178784;23;20002;-72
2023/05/10 10:41:55;;;;;;;12.55;10.57;;;16.90;99.90;;;;;;6179904;23;20502;-72
2023/05/10 10:44:36;;;;;;;17.33;12.05;;;16.80;99.90;;;;;;6152942;23;20339;-72
2023/05/10 10:47:11;;;;;;;13.55;10.82;;;16.80;99.90;;;;;;6180384;23;20396;-72
2023/05/10 10:50:00;;;;;;;14.80;12.00;;;16.90;99.90;;;;;;6180453;23;20001;-72
2023/05/10 10:52:39;;;;;;;16.40;11.88;;;17.10;99.90;;;;;;6156163;23;20174;-72
2023/05/10 10:55:14;;;;;;;14.52;10.73;;;17.30;99.90;;;;;;6153306;23;20008;-72
2023/05/10 10:57:40;;;;;;;11.05;9.82;;;17.60;99.90;;;;;;6179907;23;20009;-72
2023/05/10 11:00:25;;;;;;;14.15;9.73;;;17.70;99.90;;;;;;6153289;23;20550;-72
2023/05/10 11:02:54;;;;;;;14.60;10.05;;;17.90;99.90;;;;;;6180409;23;20001;-72
2023/05/10 11:05:28;;;;;;;12.00;10.73;;;17.90;99.90;;;;;;6179109;23;20028;-73
2023/05/10 11:07:55;;;;;;;14.65;10.23;;;17.90;99.90;;;;;;6153322;23;20009;-73
2023/05/10 11:10:22;;;;;;;11.40;9.32;;;17.80;99.90;;;;;;6179578;23;20001;-73
2023/05/10 11:12:52;;;;;;;13.05;10.10;;;17.70;99.90;;;;;;6153282;23;20005;-72
2023/05/10 11:15:19;;;;;;;10.73;9.25;;;17.90;99.90;;;;;;6179701;23;20351;-71
2023/05/10 11:17:50;;;;;;;12.15;10.85;;;18.00;99.90;;;;;;6153702;23;20024;-72
2023/05/10 11:20:22;;;;;;;12.27;9.85;;;18.10;99.90;;;;;;6153136;23;20075;-72
2023/05/10 11:22:52;;;;;;;12.30;11.00;;;18.20;99.90;;;;;;6179550;23;20104;-72
2023/05/10 11:25:18;;;;;;;10.80;9.70;;;18.30;99.90;;;;;;6179707;23;20005;-72
2023/05/10 11:27:45;;;;;;;11.82;10.73;;;18.30;99.90;;;;;;6153446;23;20307;-72
2023/05/10 11:30:11;;;;;;;14.20;10.82;;;18.40;99.90;;;;;;6153361;23;20691;-72
2023/05/10 11:32:40;;;;;;;11.43;10.13;;;18.50;99.90;;;;;;6180187;23;20363;-72
2023/05/10 11:35:11;;;;;;;16.05;11.15;;;18.50;99.90;;;;;;6179475;23;20009;-72
2023/05/10 11:37:41;;;;;;;10.98;9.77;;;18.50;99.90;;;;;;6180058;23;20080;-72
2023/05/10 11:40:09;;;;;;;12.30;10.93;;;18.40;99.90;;;;;;6179732;23;20032;-72
2023/05/10 11:42:37;;;;;;;12.40;9.43;;;18.40;99.90;;;;;;6181246;23;20465;-72
2023/05/10 11:45:03;;;;;;;11.65;10.23;;;18.50;99.90;;;;;;6181881;23;20100;-71
2023/05/10 11:47:28;;;;;;;12.15;9.70;;;18.50;99.90;;;;;;6155178;23;20159;-72
2023/05/10 11:49:54;;;;;;;13.05;9.95;;;18.60;99.90;;;;;;6181362;23;20422;-72
2023/05/10 11:52:20;;;;;;;12.13;10.10;;;18.70;99.90;;;;;;6181532;23;20445;-72
2023/05/10 11:54:55;;;;;;;12.25;10.35;;;18.80;99.90;;;;;;6181918;23;20322;-72
2023/05/10 11:57:25;;;;;;;11.88;10.13;;;18.90;99.90;;;;;;6181292;23;20001;-72
2023/05/10 11:59:54;;;;;;;11.60;9.10;;;19.10;99.90;;;;;;6181602;23;19997;-72
2023/05/10 12:02:20;;;;;;;14.02;10.95;;;19.30;99.90;;;;;;6180816;23;20042;-71
2023/05/10 12:04:46;;;;;;;9.98;8.20;;;19.30;99.90;;;;;;6181195;23;20411;-72
2023/05/10 12:07:12;;;;;;;11.90;9.38;;;19.30;99.90;;;;;;6181050;23;20001;-72
2023/05/10 12:10:01;;;;;;;10.02;8.93;;;19.30;99.90;;;;;;6181630;23;20032;-72
2023/05/10 12:12:27;;;;;;;8.45;7.38;;;19.30;99.90;;;;;;6183096;23;20009;-71
2023/05/10 12:14:52;;;;;;;9.82;8.82;;;19.40;99.90;;;;;;6183212;23;20401;-71
2023/05/10 12:17:18;;;;;;;9.52;8.50;;;19.50;99.90;;;;;;6182071;23;20024;-72
2023/05/10 12:19:44;;;;;;;9.45;7.82;;;19.60;99.90;;;;;;6181170;23;20004;-72
2023/05/10 12:22:09;;;;;;;9.95;7.93;;;19.60;99.90;;;;;;6181431;23;20425;-71
2023/05/10 12:24:36;;;;;;;7.82;7.03;;;19.60;99.90;;;;;;6180028;23;20032;-72
2023/05/10 12:27:07;;;;;;;9.65;7.25;;;19.50;99.90;;;;;;6182144;23;20012;-71
2023/05/10 12:29:33;;;;;;;8.80;6.70;;;19.50;99.90;;;;;;6182919;23;19997;-72
2023/05/10 12:31:59;;;;;;;8.00;6.85;;;19.50;99.90;;;;;;6183255;23;20039;-73